<?xml version="1.0" encoding="UTF-8" standalone="no" ?>
<gpx xmlns="http://www.topografix.com/GPX/1/1" xmlns:xsi="http://www.w3.org/2001/XMLSchema-instance" xsi:schemaLocation="http://www.topografix.com/GPX/1/1 http://www.topografix.com/GPX/1/1/gpx.xsd" version="1.1" creator="VisuGPX - https://www.visugpx.com">
  <metadata>
    <name>Sortie Vélo la Gatolière 1er Groupe</name>
    <desc><![CDATA[La Première Sortie Vélo de l'école de la Gatolière. 1er Groupe
]]></desc>
  </metadata>
  <trk>
    <name><![CDATA[31-MAI-12 14:50:57]]></name>
    <trkseg>
      <trkpt lat="45.74458" lon="4.71366">
        <ele>294.78</ele>
        <time>2012-05-31T11:25:41Z</time>
      </trkpt>
      <trkpt lat="45.74457" lon="4.71366">
        <ele>294.3</ele>
        <time>2012-05-31T11:26:10Z</time>
      </trkpt>
      <trkpt lat="45.74458" lon="4.71367">
        <ele>293.82</ele>
        <time>2012-05-31T11:26:50Z</time>
      </trkpt>
      <trkpt lat="45.74458" lon="4.71366">
        <ele>293.82</ele>
        <time>2012-05-31T11:27:25Z</time>
      </trkpt>
      <trkpt lat="45.74457" lon="4.71366">
        <ele>294.3</ele>
        <time>2012-05-31T11:27:50Z</time>
      </trkpt>
      <trkpt lat="45.74457" lon="4.71366">
        <ele>294.3</ele>
        <time>2012-05-31T11:28:27Z</time>
      </trkpt>
      <trkpt lat="45.74458" lon="4.71366">
        <ele>293.82</ele>
        <time>2012-05-31T11:28:49Z</time>
      </trkpt>
      <trkpt lat="45.74459" lon="4.71367">
        <ele>294.78</ele>
        <time>2012-05-31T11:29:05Z</time>
      </trkpt>
      <trkpt lat="45.74459" lon="4.71368">
        <ele>295.74</ele>
        <time>2012-05-31T11:29:36Z</time>
      </trkpt>
      <trkpt lat="45.7446" lon="4.7137">
        <ele>294.78</ele>
        <time>2012-05-31T11:29:57Z</time>
      </trkpt>
      <trkpt lat="45.74459" lon="4.7137">
        <ele>295.26</ele>
        <time>2012-05-31T11:30:17Z</time>
      </trkpt>
      <trkpt lat="45.74459" lon="4.7137">
        <ele>295.26</ele>
        <time>2012-05-31T11:30:20Z</time>
      </trkpt>
      <trkpt lat="45.74459" lon="4.71368">
        <ele>295.26</ele>
        <time>2012-05-31T11:30:37Z</time>
      </trkpt>
      <trkpt lat="45.7446" lon="4.71369">
        <ele>295.26</ele>
        <time>2012-05-31T11:31:10Z</time>
      </trkpt>
      <trkpt lat="45.74461" lon="4.71368">
        <ele>294.78</ele>
        <time>2012-05-31T11:31:33Z</time>
      </trkpt>
      <trkpt lat="45.74461" lon="4.71368">
        <ele>294.3</ele>
        <time>2012-05-31T11:31:44Z</time>
      </trkpt>
      <trkpt lat="45.74462" lon="4.71368">
        <ele>294.78</ele>
        <time>2012-05-31T11:32:03Z</time>
      </trkpt>
      <trkpt lat="45.74462" lon="4.71367">
        <ele>294.78</ele>
        <time>2012-05-31T11:32:30Z</time>
      </trkpt>
      <trkpt lat="45.74463" lon="4.71366">
        <ele>294.78</ele>
        <time>2012-05-31T11:32:57Z</time>
      </trkpt>
      <trkpt lat="45.74463" lon="4.71366">
        <ele>294.3</ele>
        <time>2012-05-31T11:33:08Z</time>
      </trkpt>
      <trkpt lat="45.74463" lon="4.71367">
        <ele>293.82</ele>
        <time>2012-05-31T11:33:25Z</time>
      </trkpt>
      <trkpt lat="45.74462" lon="4.71367">
        <ele>294.3</ele>
        <time>2012-05-31T11:33:55Z</time>
      </trkpt>
      <trkpt lat="45.74462" lon="4.71367">
        <ele>294.3</ele>
        <time>2012-05-31T11:33:56Z</time>
      </trkpt>
      <trkpt lat="45.74463" lon="4.71367">
        <ele>294.3</ele>
        <time>2012-05-31T11:34:22Z</time>
      </trkpt>
      <trkpt lat="45.74463" lon="4.71367">
        <ele>294.78</ele>
        <time>2012-05-31T11:34:52Z</time>
      </trkpt>
      <trkpt lat="45.74463" lon="4.71367">
        <ele>294.78</ele>
        <time>2012-05-31T11:34:55Z</time>
      </trkpt>
      <trkpt lat="45.74463" lon="4.71367">
        <ele>295.26</ele>
        <time>2012-05-31T11:35:06Z</time>
      </trkpt>
      <trkpt lat="45.74477" lon="4.71358">
        <ele>297.18</ele>
        <time>2012-05-31T11:35:21Z</time>
      </trkpt>
      <trkpt lat="45.74501" lon="4.71333">
        <ele>298.15</ele>
        <time>2012-05-31T11:35:34Z</time>
      </trkpt>
      <trkpt lat="45.74546" lon="4.7128">
        <ele>296.22</ele>
        <time>2012-05-31T11:35:54Z</time>
      </trkpt>
      <trkpt lat="45.74567" lon="4.71252">
        <ele>295.26</ele>
        <time>2012-05-31T11:36:07Z</time>
      </trkpt>
      <trkpt lat="45.74582" lon="4.71228">
        <ele>295.26</ele>
        <time>2012-05-31T11:36:14Z</time>
      </trkpt>
      <trkpt lat="45.74602" lon="4.71254">
        <ele>294.3</ele>
        <time>2012-05-31T11:36:23Z</time>
      </trkpt>
      <trkpt lat="45.74604" lon="4.71263">
        <ele>294.3</ele>
        <time>2012-05-31T11:36:25Z</time>
      </trkpt>
      <trkpt lat="45.74632" lon="4.71343">
        <ele>294.78</ele>
        <time>2012-05-31T11:36:43Z</time>
      </trkpt>
      <trkpt lat="45.74671" lon="4.71354">
        <ele>294.3</ele>
        <time>2012-05-31T11:36:53Z</time>
      </trkpt>
      <trkpt lat="45.7472" lon="4.71364">
        <ele>291.9</ele>
        <time>2012-05-31T11:37:08Z</time>
      </trkpt>
      <trkpt lat="45.74725" lon="4.71366">
        <ele>290.94</ele>
        <time>2012-05-31T11:37:18Z</time>
      </trkpt>
      <trkpt lat="45.74726" lon="4.71365">
        <ele>290.94</ele>
        <time>2012-05-31T11:37:50Z</time>
      </trkpt>
      <trkpt lat="45.74728" lon="4.71365">
        <ele>290.94</ele>
        <time>2012-05-31T11:37:57Z</time>
      </trkpt>
      <trkpt lat="45.74731" lon="4.71401">
        <ele>290.46</ele>
        <time>2012-05-31T11:38:06Z</time>
      </trkpt>
      <trkpt lat="45.74732" lon="4.71487">
        <ele>290.94</ele>
        <time>2012-05-31T11:38:22Z</time>
      </trkpt>
      <trkpt lat="45.74733" lon="4.71508">
        <ele>290.94</ele>
        <time>2012-05-31T11:38:32Z</time>
      </trkpt>
      <trkpt lat="45.74734" lon="4.71526">
        <ele>290.46</ele>
        <time>2012-05-31T11:38:49Z</time>
      </trkpt>
      <trkpt lat="45.74734" lon="4.71535">
        <ele>290.46</ele>
        <time>2012-05-31T11:38:53Z</time>
      </trkpt>
      <trkpt lat="45.7475" lon="4.71536">
        <ele>288.53</ele>
        <time>2012-05-31T11:38:59Z</time>
      </trkpt>
      <trkpt lat="45.74762" lon="4.71525">
        <ele>287.57</ele>
        <time>2012-05-31T11:39:02Z</time>
      </trkpt>
      <trkpt lat="45.74814" lon="4.71449">
        <ele>286.61</ele>
        <time>2012-05-31T11:39:18Z</time>
      </trkpt>
      <trkpt lat="45.74869" lon="4.71399">
        <ele>286.13</ele>
        <time>2012-05-31T11:39:35Z</time>
      </trkpt>
      <trkpt lat="45.7491" lon="4.71371">
        <ele>287.09</ele>
        <time>2012-05-31T11:39:49Z</time>
      </trkpt>
      <trkpt lat="45.74945" lon="4.71331">
        <ele>290.94</ele>
        <time>2012-05-31T11:40:06Z</time>
      </trkpt>
      <trkpt lat="45.74986" lon="4.71264">
        <ele>297.18</ele>
        <time>2012-05-31T11:40:28Z</time>
      </trkpt>
      <trkpt lat="45.75019" lon="4.71188">
        <ele>301.51</ele>
        <time>2012-05-31T11:40:49Z</time>
      </trkpt>
      <trkpt lat="45.75028" lon="4.71145">
        <ele>301.51</ele>
        <time>2012-05-31T11:41:00Z</time>
      </trkpt>
      <trkpt lat="45.75048" lon="4.71061">
        <ele>303.43</ele>
        <time>2012-05-31T11:41:20Z</time>
      </trkpt>
      <trkpt lat="45.75069" lon="4.70979">
        <ele>305.36</ele>
        <time>2012-05-31T11:41:40Z</time>
      </trkpt>
      <trkpt lat="45.75089" lon="4.70908">
        <ele>306.8</ele>
        <time>2012-05-31T11:41:58Z</time>
      </trkpt>
      <trkpt lat="45.75108" lon="4.7084">
        <ele>307.76</ele>
        <time>2012-05-31T11:42:16Z</time>
      </trkpt>
      <trkpt lat="45.75114" lon="4.70794">
        <ele>308.24</ele>
        <time>2012-05-31T11:42:30Z</time>
      </trkpt>
      <trkpt lat="45.75114" lon="4.70722">
        <ele>309.2</ele>
        <time>2012-05-31T11:42:47Z</time>
      </trkpt>
      <trkpt lat="45.75113" lon="4.70629">
        <ele>309.68</ele>
        <time>2012-05-31T11:43:06Z</time>
      </trkpt>
      <trkpt lat="45.75112" lon="4.70551">
        <ele>311.12</ele>
        <time>2012-05-31T11:43:22Z</time>
      </trkpt>
      <trkpt lat="45.75111" lon="4.70461">
        <ele>311.12</ele>
        <time>2012-05-31T11:43:42Z</time>
      </trkpt>
      <trkpt lat="45.75109" lon="4.70401">
        <ele>311.12</ele>
        <time>2012-05-31T11:43:54Z</time>
      </trkpt>
      <trkpt lat="45.75109" lon="4.70316">
        <ele>312.09</ele>
        <time>2012-05-31T11:44:11Z</time>
      </trkpt>
      <trkpt lat="45.75113" lon="4.70264">
        <ele>312.57</ele>
        <time>2012-05-31T11:44:22Z</time>
      </trkpt>
      <trkpt lat="45.75117" lon="4.7025">
        <ele>312.57</ele>
        <time>2012-05-31T11:44:26Z</time>
      </trkpt>
      <trkpt lat="45.75116" lon="4.70241">
        <ele>314.01</ele>
        <time>2012-05-31T11:44:35Z</time>
      </trkpt>
      <trkpt lat="45.75116" lon="4.70242">
        <ele>315.93</ele>
        <time>2012-05-31T11:45:01Z</time>
      </trkpt>
      <trkpt lat="45.75116" lon="4.70241">
        <ele>316.41</ele>
        <time>2012-05-31T11:45:20Z</time>
      </trkpt>
      <trkpt lat="45.75115" lon="4.70244">
        <ele>316.89</ele>
        <time>2012-05-31T11:45:40Z</time>
      </trkpt>
      <trkpt lat="45.75115" lon="4.70247">
        <ele>317.37</ele>
        <time>2012-05-31T11:45:52Z</time>
      </trkpt>
      <trkpt lat="45.75115" lon="4.70246">
        <ele>317.85</ele>
        <time>2012-05-31T11:46:05Z</time>
      </trkpt>
      <trkpt lat="45.75115" lon="4.70246">
        <ele>317.37</ele>
        <time>2012-05-31T11:46:26Z</time>
      </trkpt>
      <trkpt lat="45.75116" lon="4.70245">
        <ele>317.37</ele>
        <time>2012-05-31T11:46:43Z</time>
      </trkpt>
      <trkpt lat="45.75116" lon="4.70244">
        <ele>317.85</ele>
        <time>2012-05-31T11:47:06Z</time>
      </trkpt>
      <trkpt lat="45.75116" lon="4.70244">
        <ele>318.81</ele>
        <time>2012-05-31T11:47:31Z</time>
      </trkpt>
      <trkpt lat="45.75116" lon="4.70243">
        <ele>318.33</ele>
        <time>2012-05-31T11:47:53Z</time>
      </trkpt>
      <trkpt lat="45.75115" lon="4.70244">
        <ele>317.85</ele>
        <time>2012-05-31T11:48:22Z</time>
      </trkpt>
      <trkpt lat="45.75114" lon="4.70244">
        <ele>316.41</ele>
        <time>2012-05-31T11:48:55Z</time>
      </trkpt>
      <trkpt lat="45.75114" lon="4.70244">
        <ele>316.41</ele>
        <time>2012-05-31T11:48:56Z</time>
      </trkpt>
      <trkpt lat="45.75118" lon="4.7021">
        <ele>315.93</ele>
        <time>2012-05-31T11:49:11Z</time>
      </trkpt>
      <trkpt lat="45.75123" lon="4.70128">
        <ele>316.41</ele>
        <time>2012-05-31T11:49:29Z</time>
      </trkpt>
      <trkpt lat="45.75119" lon="4.70044">
        <ele>316.41</ele>
        <time>2012-05-31T11:49:46Z</time>
      </trkpt>
      <trkpt lat="45.75104" lon="4.69952">
        <ele>317.85</ele>
        <time>2012-05-31T11:50:04Z</time>
      </trkpt>
      <trkpt lat="45.75088" lon="4.69867">
        <ele>319.3</ele>
        <time>2012-05-31T11:50:21Z</time>
      </trkpt>
      <trkpt lat="45.75074" lon="4.69799">
        <ele>318.81</ele>
        <time>2012-05-31T11:50:36Z</time>
      </trkpt>
      <trkpt lat="45.75074" lon="4.69733">
        <ele>317.85</ele>
        <time>2012-05-31T11:50:50Z</time>
      </trkpt>
      <trkpt lat="45.75076" lon="4.6965">
        <ele>319.3</ele>
        <time>2012-05-31T11:51:07Z</time>
      </trkpt>
      <trkpt lat="45.75078" lon="4.696">
        <ele>320.74</ele>
        <time>2012-05-31T11:51:20Z</time>
      </trkpt>
      <trkpt lat="45.75075" lon="4.69534">
        <ele>323.14</ele>
        <time>2012-05-31T11:51:35Z</time>
      </trkpt>
      <trkpt lat="45.75069" lon="4.69458">
        <ele>325.06</ele>
        <time>2012-05-31T11:51:52Z</time>
      </trkpt>
      <trkpt lat="45.75055" lon="4.69399">
        <ele>327.95</ele>
        <time>2012-05-31T11:52:06Z</time>
      </trkpt>
      <trkpt lat="45.75027" lon="4.69344">
        <ele>330.83</ele>
        <time>2012-05-31T11:52:20Z</time>
      </trkpt>
      <trkpt lat="45.74996" lon="4.6928">
        <ele>334.68</ele>
        <time>2012-05-31T11:52:37Z</time>
      </trkpt>
      <trkpt lat="45.74982" lon="4.69252">
        <ele>337.56</ele>
        <time>2012-05-31T11:52:49Z</time>
      </trkpt>
      <trkpt lat="45.74981" lon="4.69253">
        <ele>338.52</ele>
        <time>2012-05-31T11:53:08Z</time>
      </trkpt>
      <trkpt lat="45.7498" lon="4.69252">
        <ele>338.04</ele>
        <time>2012-05-31T11:53:35Z</time>
      </trkpt>
      <trkpt lat="45.74978" lon="4.6924">
        <ele>338.52</ele>
        <time>2012-05-31T11:53:40Z</time>
      </trkpt>
      <trkpt lat="45.74985" lon="4.69179">
        <ele>339</ele>
        <time>2012-05-31T11:53:57Z</time>
      </trkpt>
      <trkpt lat="45.74993" lon="4.69101">
        <ele>340.92</ele>
        <time>2012-05-31T11:54:17Z</time>
      </trkpt>
      <trkpt lat="45.75003" lon="4.69001">
        <ele>343.33</ele>
        <time>2012-05-31T11:54:40Z</time>
      </trkpt>
      <trkpt lat="45.75004" lon="4.6892">
        <ele>345.73</ele>
        <time>2012-05-31T11:54:59Z</time>
      </trkpt>
      <trkpt lat="45.74994" lon="4.68874">
        <ele>348.13</ele>
        <time>2012-05-31T11:55:10Z</time>
      </trkpt>
      <trkpt lat="45.7498" lon="4.68812">
        <ele>350.54</ele>
        <time>2012-05-31T11:55:25Z</time>
      </trkpt>
      <trkpt lat="45.74972" lon="4.68782">
        <ele>351.5</ele>
        <time>2012-05-31T11:55:33Z</time>
      </trkpt>
      <trkpt lat="45.7496" lon="4.68738">
        <ele>353.42</ele>
        <time>2012-05-31T11:55:46Z</time>
      </trkpt>
      <trkpt lat="45.74941" lon="4.68672">
        <ele>355.83</ele>
        <time>2012-05-31T11:56:05Z</time>
      </trkpt>
      <trkpt lat="45.74923" lon="4.68609">
        <ele>358.71</ele>
        <time>2012-05-31T11:56:22Z</time>
      </trkpt>
      <trkpt lat="45.74903" lon="4.68539">
        <ele>361.11</ele>
        <time>2012-05-31T11:56:41Z</time>
      </trkpt>
      <trkpt lat="45.74884" lon="4.68472">
        <ele>364</ele>
        <time>2012-05-31T11:56:59Z</time>
      </trkpt>
      <trkpt lat="45.74867" lon="4.68403">
        <ele>366.88</ele>
        <time>2012-05-31T11:57:17Z</time>
      </trkpt>
      <trkpt lat="45.74854" lon="4.68332">
        <ele>368.8</ele>
        <time>2012-05-31T11:57:35Z</time>
      </trkpt>
      <trkpt lat="45.74842" lon="4.68268">
        <ele>370.73</ele>
        <time>2012-05-31T11:57:51Z</time>
      </trkpt>
      <trkpt lat="45.74834" lon="4.68206">
        <ele>370.24</ele>
        <time>2012-05-31T11:58:08Z</time>
      </trkpt>
      <trkpt lat="45.74826" lon="4.6813">
        <ele>370.73</ele>
        <time>2012-05-31T11:58:29Z</time>
      </trkpt>
      <trkpt lat="45.74824" lon="4.68077">
        <ele>370.73</ele>
        <time>2012-05-31T11:58:43Z</time>
      </trkpt>
      <trkpt lat="45.74823" lon="4.68003">
        <ele>371.21</ele>
        <time>2012-05-31T11:59:02Z</time>
      </trkpt>
      <trkpt lat="45.74825" lon="4.67926">
        <ele>371.21</ele>
        <time>2012-05-31T11:59:22Z</time>
      </trkpt>
      <trkpt lat="45.74827" lon="4.67871">
        <ele>372.65</ele>
        <time>2012-05-31T11:59:38Z</time>
      </trkpt>
      <trkpt lat="45.74829" lon="4.67833">
        <ele>372.65</ele>
        <time>2012-05-31T11:59:50Z</time>
      </trkpt>
      <trkpt lat="45.7483" lon="4.67777">
        <ele>373.61</ele>
        <time>2012-05-31T12:00:08Z</time>
      </trkpt>
      <trkpt lat="45.74829" lon="4.67763">
        <ele>374.57</ele>
        <time>2012-05-31T12:00:15Z</time>
      </trkpt>
      <trkpt lat="45.74819" lon="4.67769">
        <ele>375.05</ele>
        <time>2012-05-31T12:00:21Z</time>
      </trkpt>
      <trkpt lat="45.74804" lon="4.67857">
        <ele>374.57</ele>
        <time>2012-05-31T12:00:39Z</time>
      </trkpt>
      <trkpt lat="45.74784" lon="4.67883">
        <ele>373.61</ele>
        <time>2012-05-31T12:00:48Z</time>
      </trkpt>
      <trkpt lat="45.74754" lon="4.67883">
        <ele>373.13</ele>
        <time>2012-05-31T12:00:57Z</time>
      </trkpt>
      <trkpt lat="45.74753" lon="4.67887">
        <ele>373.61</ele>
        <time>2012-05-31T12:01:10Z</time>
      </trkpt>
      <trkpt lat="45.74753" lon="4.67887">
        <ele>373.61</ele>
        <time>2012-05-31T12:01:15Z</time>
      </trkpt>
      <trkpt lat="45.74759" lon="4.67886">
        <ele>373.13</ele>
        <time>2012-05-31T12:01:28Z</time>
      </trkpt>
      <trkpt lat="45.74758" lon="4.67886">
        <ele>373.61</ele>
        <time>2012-05-31T12:01:39Z</time>
      </trkpt>
      <trkpt lat="45.74755" lon="4.67887">
        <ele>374.09</ele>
        <time>2012-05-31T12:01:54Z</time>
      </trkpt>
      <trkpt lat="45.74756" lon="4.67887">
        <ele>373.61</ele>
        <time>2012-05-31T12:02:07Z</time>
      </trkpt>
      <trkpt lat="45.74757" lon="4.67886">
        <ele>374.09</ele>
        <time>2012-05-31T12:02:33Z</time>
      </trkpt>
      <trkpt lat="45.74753" lon="4.67887">
        <ele>373.13</ele>
        <time>2012-05-31T12:02:48Z</time>
      </trkpt>
      <trkpt lat="45.74752" lon="4.67888">
        <ele>370.73</ele>
        <time>2012-05-31T12:03:21Z</time>
      </trkpt>
      <trkpt lat="45.74752" lon="4.67888">
        <ele>370.24</ele>
        <time>2012-05-31T12:03:53Z</time>
      </trkpt>
      <trkpt lat="45.74752" lon="4.67888">
        <ele>370.73</ele>
        <time>2012-05-31T12:04:28Z</time>
      </trkpt>
      <trkpt lat="45.74751" lon="4.67888">
        <ele>371.69</ele>
        <time>2012-05-31T12:05:01Z</time>
      </trkpt>
      <trkpt lat="45.74751" lon="4.67887">
        <ele>371.21</ele>
        <time>2012-05-31T12:05:30Z</time>
      </trkpt>
      <trkpt lat="45.74751" lon="4.67887">
        <ele>371.69</ele>
        <time>2012-05-31T12:05:43Z</time>
      </trkpt>
      <trkpt lat="45.74751" lon="4.67887">
        <ele>373.13</ele>
        <time>2012-05-31T12:06:02Z</time>
      </trkpt>
      <trkpt lat="45.74752" lon="4.67889">
        <ele>374.09</ele>
        <time>2012-05-31T12:06:40Z</time>
      </trkpt>
      <trkpt lat="45.74753" lon="4.6789">
        <ele>374.09</ele>
        <time>2012-05-31T12:07:10Z</time>
      </trkpt>
      <trkpt lat="45.74753" lon="4.67891">
        <ele>373.61</ele>
        <time>2012-05-31T12:07:30Z</time>
      </trkpt>
      <trkpt lat="45.74753" lon="4.67891">
        <ele>373.61</ele>
        <time>2012-05-31T12:08:00Z</time>
      </trkpt>
      <trkpt lat="45.74753" lon="4.67891">
        <ele>374.09</ele>
        <time>2012-05-31T12:08:08Z</time>
      </trkpt>
      <trkpt lat="45.74729" lon="4.67926">
        <ele>373.13</ele>
        <time>2012-05-31T12:08:21Z</time>
      </trkpt>
      <trkpt lat="45.74722" lon="4.67958">
        <ele>372.17</ele>
        <time>2012-05-31T12:08:26Z</time>
      </trkpt>
      <trkpt lat="45.7469" lon="4.68069">
        <ele>365.44</ele>
        <time>2012-05-31T12:08:39Z</time>
      </trkpt>
      <trkpt lat="45.74661" lon="4.68102">
        <ele>362.55</ele>
        <time>2012-05-31T12:08:44Z</time>
      </trkpt>
      <trkpt lat="45.74586" lon="4.68152">
        <ele>354.38</ele>
        <time>2012-05-31T12:08:58Z</time>
      </trkpt>
      <trkpt lat="45.74572" lon="4.68171">
        <ele>352.94</ele>
        <time>2012-05-31T12:09:02Z</time>
      </trkpt>
      <trkpt lat="45.74567" lon="4.68181">
        <ele>351.98</ele>
        <time>2012-05-31T12:09:04Z</time>
      </trkpt>
      <trkpt lat="45.7455" lon="4.68224">
        <ele>349.1</ele>
        <time>2012-05-31T12:09:11Z</time>
      </trkpt>
      <trkpt lat="45.74524" lon="4.68292">
        <ele>342.85</ele>
        <time>2012-05-31T12:09:20Z</time>
      </trkpt>
      <trkpt lat="45.74511" lon="4.68327">
        <ele>340.44</ele>
        <time>2012-05-31T12:09:26Z</time>
      </trkpt>
      <trkpt lat="45.74505" lon="4.68345">
        <ele>339.48</ele>
        <time>2012-05-31T12:09:29Z</time>
      </trkpt>
      <trkpt lat="45.74477" lon="4.68352">
        <ele>337.08</ele>
        <time>2012-05-31T12:09:37Z</time>
      </trkpt>
      <trkpt lat="45.74475" lon="4.68348">
        <ele>337.08</ele>
        <time>2012-05-31T12:09:38Z</time>
      </trkpt>
      <trkpt lat="45.7447" lon="4.68332">
        <ele>336.6</ele>
        <time>2012-05-31T12:09:41Z</time>
      </trkpt>
      <trkpt lat="45.74449" lon="4.68282">
        <ele>334.68</ele>
        <time>2012-05-31T12:09:50Z</time>
      </trkpt>
      <trkpt lat="45.7443" lon="4.6826">
        <ele>334.2</ele>
        <time>2012-05-31T12:09:55Z</time>
      </trkpt>
      <trkpt lat="45.74417" lon="4.68249">
        <ele>334.2</ele>
        <time>2012-05-31T12:09:58Z</time>
      </trkpt>
      <trkpt lat="45.74366" lon="4.68167">
        <ele>334.2</ele>
        <time>2012-05-31T12:10:13Z</time>
      </trkpt>
      <trkpt lat="45.7436" lon="4.68158">
        <ele>334.2</ele>
        <time>2012-05-31T12:10:15Z</time>
      </trkpt>
      <trkpt lat="45.74331" lon="4.68174">
        <ele>335.64</ele>
        <time>2012-05-31T12:10:24Z</time>
      </trkpt>
      <trkpt lat="45.74312" lon="4.68214">
        <ele>339.96</ele>
        <time>2012-05-31T12:10:36Z</time>
      </trkpt>
      <trkpt lat="45.74297" lon="4.68289">
        <ele>342.85</ele>
        <time>2012-05-31T12:10:52Z</time>
      </trkpt>
      <trkpt lat="45.74285" lon="4.6835">
        <ele>341.41</ele>
        <time>2012-05-31T12:11:04Z</time>
      </trkpt>
      <trkpt lat="45.74259" lon="4.68364">
        <ele>342.37</ele>
        <time>2012-05-31T12:11:14Z</time>
      </trkpt>
      <trkpt lat="45.74194" lon="4.68368">
        <ele>347.17</ele>
        <time>2012-05-31T12:11:35Z</time>
      </trkpt>
      <trkpt lat="45.74155" lon="4.68371">
        <ele>348.62</ele>
        <time>2012-05-31T12:11:48Z</time>
      </trkpt>
      <trkpt lat="45.74096" lon="4.68375">
        <ele>350.06</ele>
        <time>2012-05-31T12:12:07Z</time>
      </trkpt>
      <trkpt lat="45.74051" lon="4.68379">
        <ele>350.06</ele>
        <time>2012-05-31T12:12:22Z</time>
      </trkpt>
      <trkpt lat="45.74006" lon="4.68382">
        <ele>349.1</ele>
        <time>2012-05-31T12:12:35Z</time>
      </trkpt>
      <trkpt lat="45.73962" lon="4.68379">
        <ele>346.69</ele>
        <time>2012-05-31T12:12:46Z</time>
      </trkpt>
      <trkpt lat="45.73957" lon="4.6839">
        <ele>346.69</ele>
        <time>2012-05-31T12:12:52Z</time>
      </trkpt>
      <trkpt lat="45.73957" lon="4.68401">
        <ele>344.29</ele>
        <time>2012-05-31T12:13:03Z</time>
      </trkpt>
      <trkpt lat="45.73958" lon="4.68401">
        <ele>344.29</ele>
        <time>2012-05-31T12:13:05Z</time>
      </trkpt>
      <trkpt lat="45.73959" lon="4.68401">
        <ele>345.73</ele>
        <time>2012-05-31T12:13:19Z</time>
      </trkpt>
      <trkpt lat="45.73957" lon="4.68399">
        <ele>346.69</ele>
        <time>2012-05-31T12:13:43Z</time>
      </trkpt>
      <trkpt lat="45.73956" lon="4.68398">
        <ele>348.62</ele>
        <time>2012-05-31T12:14:13Z</time>
      </trkpt>
      <trkpt lat="45.73956" lon="4.68398">
        <ele>349.58</ele>
        <time>2012-05-31T12:14:37Z</time>
      </trkpt>
      <trkpt lat="45.73957" lon="4.68398">
        <ele>350.06</ele>
        <time>2012-05-31T12:15:09Z</time>
      </trkpt>
      <trkpt lat="45.73957" lon="4.68399">
        <ele>350.06</ele>
        <time>2012-05-31T12:15:28Z</time>
      </trkpt>
      <trkpt lat="45.73956" lon="4.68396">
        <ele>350.06</ele>
        <time>2012-05-31T12:15:32Z</time>
      </trkpt>
      <trkpt lat="45.73957" lon="4.68393">
        <ele>350.06</ele>
        <time>2012-05-31T12:15:36Z</time>
      </trkpt>
      <trkpt lat="45.73963" lon="4.68395">
        <ele>349.58</ele>
        <time>2012-05-31T12:15:48Z</time>
      </trkpt>
      <trkpt lat="45.73965" lon="4.68399">
        <ele>349.1</ele>
        <time>2012-05-31T12:16:02Z</time>
      </trkpt>
      <trkpt lat="45.73976" lon="4.68418">
        <ele>347.65</ele>
        <time>2012-05-31T12:16:12Z</time>
      </trkpt>
      <trkpt lat="45.7398" lon="4.68419">
        <ele>345.73</ele>
        <time>2012-05-31T12:16:25Z</time>
      </trkpt>
      <trkpt lat="45.73981" lon="4.68419">
        <ele>343.81</ele>
        <time>2012-05-31T12:17:03Z</time>
      </trkpt>
      <trkpt lat="45.73982" lon="4.68419">
        <ele>343.81</ele>
        <time>2012-05-31T12:17:42Z</time>
      </trkpt>
      <trkpt lat="45.73982" lon="4.68419">
        <ele>343.81</ele>
        <time>2012-05-31T12:18:18Z</time>
      </trkpt>
      <trkpt lat="45.73982" lon="4.68418">
        <ele>343.33</ele>
        <time>2012-05-31T12:18:32Z</time>
      </trkpt>
      <trkpt lat="45.73981" lon="4.68417">
        <ele>344.29</ele>
        <time>2012-05-31T12:18:47Z</time>
      </trkpt>
      <trkpt lat="45.73981" lon="4.68416">
        <ele>344.77</ele>
        <time>2012-05-31T12:19:03Z</time>
      </trkpt>
      <trkpt lat="45.73993" lon="4.68437">
        <ele>345.25</ele>
        <time>2012-05-31T12:19:12Z</time>
      </trkpt>
      <trkpt lat="45.7402" lon="4.68488">
        <ele>344.29</ele>
        <time>2012-05-31T12:19:25Z</time>
      </trkpt>
      <trkpt lat="45.74034" lon="4.68509">
        <ele>343.81</ele>
        <time>2012-05-31T12:19:30Z</time>
      </trkpt>
      <trkpt lat="45.7404" lon="4.68518">
        <ele>343.33</ele>
        <time>2012-05-31T12:19:32Z</time>
      </trkpt>
      <trkpt lat="45.74105" lon="4.68576">
        <ele>340.44</ele>
        <time>2012-05-31T12:19:47Z</time>
      </trkpt>
      <trkpt lat="45.7415" lon="4.68591">
        <ele>338.52</ele>
        <time>2012-05-31T12:19:55Z</time>
      </trkpt>
      <trkpt lat="45.74162" lon="4.68591">
        <ele>338.04</ele>
        <time>2012-05-31T12:19:57Z</time>
      </trkpt>
      <trkpt lat="45.74179" lon="4.68592">
        <ele>337.08</ele>
        <time>2012-05-31T12:20:00Z</time>
      </trkpt>
      <trkpt lat="45.7423" lon="4.68575">
        <ele>334.2</ele>
        <time>2012-05-31T12:20:08Z</time>
      </trkpt>
      <trkpt lat="45.74243" lon="4.68569">
        <ele>333.71</ele>
        <time>2012-05-31T12:20:10Z</time>
      </trkpt>
      <trkpt lat="45.74319" lon="4.68566">
        <ele>331.31</ele>
        <time>2012-05-31T12:20:22Z</time>
      </trkpt>
      <trkpt lat="45.74374" lon="4.68594">
        <ele>329.87</ele>
        <time>2012-05-31T12:20:32Z</time>
      </trkpt>
      <trkpt lat="45.74411" lon="4.68634">
        <ele>329.39</ele>
        <time>2012-05-31T12:20:40Z</time>
      </trkpt>
      <trkpt lat="45.74456" lon="4.68729">
        <ele>327.95</ele>
        <time>2012-05-31T12:20:54Z</time>
      </trkpt>
      <trkpt lat="45.74468" lon="4.68758">
        <ele>327.47</ele>
        <time>2012-05-31T12:20:58Z</time>
      </trkpt>
      <trkpt lat="45.74474" lon="4.68781">
        <ele>326.5</ele>
        <time>2012-05-31T12:21:01Z</time>
      </trkpt>
      <trkpt lat="45.74505" lon="4.68867">
        <ele>323.14</ele>
        <time>2012-05-31T12:21:13Z</time>
      </trkpt>
      <trkpt lat="45.74526" lon="4.68925">
        <ele>321.22</ele>
        <time>2012-05-31T12:21:21Z</time>
      </trkpt>
      <trkpt lat="45.74539" lon="4.6898">
        <ele>321.22</ele>
        <time>2012-05-31T12:21:29Z</time>
      </trkpt>
      <trkpt lat="45.74544" lon="4.69025">
        <ele>320.74</ele>
        <time>2012-05-31T12:21:38Z</time>
      </trkpt>
      <trkpt lat="45.74528" lon="4.69026">
        <ele>320.74</ele>
        <time>2012-05-31T12:21:44Z</time>
      </trkpt>
      <trkpt lat="45.74522" lon="4.69025">
        <ele>320.26</ele>
        <time>2012-05-31T12:21:46Z</time>
      </trkpt>
      <trkpt lat="45.74519" lon="4.69026">
        <ele>319.78</ele>
        <time>2012-05-31T12:21:58Z</time>
      </trkpt>
      <trkpt lat="45.74519" lon="4.69028">
        <ele>319.3</ele>
        <time>2012-05-31T12:22:24Z</time>
      </trkpt>
      <trkpt lat="45.74519" lon="4.69028">
        <ele>319.78</ele>
        <time>2012-05-31T12:22:46Z</time>
      </trkpt>
      <trkpt lat="45.7452" lon="4.69028">
        <ele>319.3</ele>
        <time>2012-05-31T12:23:14Z</time>
      </trkpt>
      <trkpt lat="45.74519" lon="4.69027">
        <ele>319.3</ele>
        <time>2012-05-31T12:23:30Z</time>
      </trkpt>
      <trkpt lat="45.74512" lon="4.69088">
        <ele>318.81</ele>
        <time>2012-05-31T12:23:44Z</time>
      </trkpt>
      <trkpt lat="45.74509" lon="4.69132">
        <ele>319.3</ele>
        <time>2012-05-31T12:23:52Z</time>
      </trkpt>
      <trkpt lat="45.74521" lon="4.69229">
        <ele>319.3</ele>
        <time>2012-05-31T12:24:07Z</time>
      </trkpt>
      <trkpt lat="45.74516" lon="4.69293">
        <ele>318.81</ele>
        <time>2012-05-31T12:24:16Z</time>
      </trkpt>
      <trkpt lat="45.74528" lon="4.6933">
        <ele>319.3</ele>
        <time>2012-05-31T12:24:23Z</time>
      </trkpt>
      <trkpt lat="45.74527" lon="4.69334">
        <ele>319.3</ele>
        <time>2012-05-31T12:24:24Z</time>
      </trkpt>
      <trkpt lat="45.74528" lon="4.69405">
        <ele>316.89</ele>
        <time>2012-05-31T12:24:39Z</time>
      </trkpt>
      <trkpt lat="45.74533" lon="4.69487">
        <ele>315.45</ele>
        <time>2012-05-31T12:24:54Z</time>
      </trkpt>
      <trkpt lat="45.74535" lon="4.69506">
        <ele>314.97</ele>
        <time>2012-05-31T12:25:04Z</time>
      </trkpt>
      <trkpt lat="45.74536" lon="4.69523">
        <ele>315.93</ele>
        <time>2012-05-31T12:25:19Z</time>
      </trkpt>
      <trkpt lat="45.74537" lon="4.69553">
        <ele>314.01</ele>
        <time>2012-05-31T12:25:24Z</time>
      </trkpt>
      <trkpt lat="45.74538" lon="4.69604">
        <ele>311.6</ele>
        <time>2012-05-31T12:25:32Z</time>
      </trkpt>
      <trkpt lat="45.74541" lon="4.69677">
        <ele>310.16</ele>
        <time>2012-05-31T12:25:43Z</time>
      </trkpt>
      <trkpt lat="45.74544" lon="4.69726">
        <ele>310.16</ele>
        <time>2012-05-31T12:25:50Z</time>
      </trkpt>
      <trkpt lat="45.74546" lon="4.69784">
        <ele>309.68</ele>
        <time>2012-05-31T12:25:58Z</time>
      </trkpt>
      <trkpt lat="45.74537" lon="4.69815">
        <ele>309.2</ele>
        <time>2012-05-31T12:26:03Z</time>
      </trkpt>
      <trkpt lat="45.74502" lon="4.69859">
        <ele>307.76</ele>
        <time>2012-05-31T12:26:11Z</time>
      </trkpt>
      <trkpt lat="45.74454" lon="4.69891">
        <ele>307.28</ele>
        <time>2012-05-31T12:26:21Z</time>
      </trkpt>
      <trkpt lat="45.74412" lon="4.69923">
        <ele>306.32</ele>
        <time>2012-05-31T12:26:33Z</time>
      </trkpt>
      <trkpt lat="45.74412" lon="4.69925">
        <ele>303.43</ele>
        <time>2012-05-31T12:26:50Z</time>
      </trkpt>
      <trkpt lat="45.74412" lon="4.69926">
        <ele>303.43</ele>
        <time>2012-05-31T12:27:17Z</time>
      </trkpt>
      <trkpt lat="45.74405" lon="4.69932">
        <ele>305.36</ele>
        <time>2012-05-31T12:27:33Z</time>
      </trkpt>
      <trkpt lat="45.74362" lon="4.69957">
        <ele>304.88</ele>
        <time>2012-05-31T12:27:43Z</time>
      </trkpt>
      <trkpt lat="45.74352" lon="4.69965">
        <ele>304.39</ele>
        <time>2012-05-31T12:27:45Z</time>
      </trkpt>
      <trkpt lat="45.74313" lon="4.7002">
        <ele>301.99</ele>
        <time>2012-05-31T12:27:55Z</time>
      </trkpt>
      <trkpt lat="45.74297" lon="4.70047">
        <ele>301.03</ele>
        <time>2012-05-31T12:28:00Z</time>
      </trkpt>
      <trkpt lat="45.74274" lon="4.70081">
        <ele>299.11</ele>
        <time>2012-05-31T12:28:07Z</time>
      </trkpt>
      <trkpt lat="45.74217" lon="4.70143">
        <ele>300.07</ele>
        <time>2012-05-31T12:28:23Z</time>
      </trkpt>
      <trkpt lat="45.74165" lon="4.70184">
        <ele>300.55</ele>
        <time>2012-05-31T12:28:37Z</time>
      </trkpt>
      <trkpt lat="45.74098" lon="4.70241">
        <ele>301.03</ele>
        <time>2012-05-31T12:28:56Z</time>
      </trkpt>
      <trkpt lat="45.74052" lon="4.70279">
        <ele>301.03</ele>
        <time>2012-05-31T12:29:10Z</time>
      </trkpt>
      <trkpt lat="45.74048" lon="4.70282">
        <ele>301.03</ele>
        <time>2012-05-31T12:29:11Z</time>
      </trkpt>
      <trkpt lat="45.74027" lon="4.703">
        <ele>300.55</ele>
        <time>2012-05-31T12:29:16Z</time>
      </trkpt>
      <trkpt lat="45.74012" lon="4.70309">
        <ele>300.55</ele>
        <time>2012-05-31T12:29:20Z</time>
      </trkpt>
      <trkpt lat="45.73955" lon="4.70344">
        <ele>303.43</ele>
        <time>2012-05-31T12:29:35Z</time>
      </trkpt>
      <trkpt lat="45.73887" lon="4.70391">
        <ele>302.95</ele>
        <time>2012-05-31T12:29:51Z</time>
      </trkpt>
      <trkpt lat="45.73816" lon="4.70437">
        <ele>299.59</ele>
        <time>2012-05-31T12:30:03Z</time>
      </trkpt>
      <trkpt lat="45.73763" lon="4.70477">
        <ele>295.74</ele>
        <time>2012-05-31T12:30:13Z</time>
      </trkpt>
      <trkpt lat="45.7374" lon="4.70498">
        <ele>291.42</ele>
        <time>2012-05-31T12:30:21Z</time>
      </trkpt>
      <trkpt lat="45.73696" lon="4.70543">
        <ele>288.53</ele>
        <time>2012-05-31T12:30:31Z</time>
      </trkpt>
      <trkpt lat="45.73683" lon="4.70555">
        <ele>288.05</ele>
        <time>2012-05-31T12:30:34Z</time>
      </trkpt>
      <trkpt lat="45.73674" lon="4.70564">
        <ele>288.05</ele>
        <time>2012-05-31T12:30:36Z</time>
      </trkpt>
      <trkpt lat="45.73634" lon="4.70592">
        <ele>285.65</ele>
        <time>2012-05-31T12:30:44Z</time>
      </trkpt>
      <trkpt lat="45.73612" lon="4.70596">
        <ele>285.17</ele>
        <time>2012-05-31T12:30:48Z</time>
      </trkpt>
      <trkpt lat="45.73583" lon="4.70588">
        <ele>285.65</ele>
        <time>2012-05-31T12:30:54Z</time>
      </trkpt>
      <trkpt lat="45.73559" lon="4.70559">
        <ele>285.65</ele>
        <time>2012-05-31T12:31:04Z</time>
      </trkpt>
      <trkpt lat="45.73543" lon="4.70562">
        <ele>283.73</ele>
        <time>2012-05-31T12:31:09Z</time>
      </trkpt>
      <trkpt lat="45.73546" lon="4.70577">
        <ele>281.8</ele>
        <time>2012-05-31T12:31:14Z</time>
      </trkpt>
      <trkpt lat="45.73571" lon="4.70594">
        <ele>279.88</ele>
        <time>2012-05-31T12:31:26Z</time>
      </trkpt>
      <trkpt lat="45.73598" lon="4.70611">
        <ele>280.84</ele>
        <time>2012-05-31T12:31:38Z</time>
      </trkpt>
      <trkpt lat="45.73623" lon="4.7062">
        <ele>281.8</ele>
        <time>2012-05-31T12:31:48Z</time>
      </trkpt>
      <trkpt lat="45.73656" lon="4.70632">
        <ele>283.25</ele>
        <time>2012-05-31T12:32:00Z</time>
      </trkpt>
      <trkpt lat="45.73697" lon="4.70638">
        <ele>285.17</ele>
        <time>2012-05-31T12:32:14Z</time>
      </trkpt>
      <trkpt lat="45.73734" lon="4.7064">
        <ele>288.53</ele>
        <time>2012-05-31T12:32:25Z</time>
      </trkpt>
      <trkpt lat="45.73785" lon="4.70659">
        <ele>289.01</ele>
        <time>2012-05-31T12:32:41Z</time>
      </trkpt>
      <trkpt lat="45.73819" lon="4.70681">
        <ele>288.05</ele>
        <time>2012-05-31T12:32:53Z</time>
      </trkpt>
      <trkpt lat="45.7385" lon="4.70709">
        <ele>286.61</ele>
        <time>2012-05-31T12:33:05Z</time>
      </trkpt>
      <trkpt lat="45.73889" lon="4.70738">
        <ele>286.61</ele>
        <time>2012-05-31T12:33:20Z</time>
      </trkpt>
      <trkpt lat="45.7392" lon="4.7075">
        <ele>287.57</ele>
        <time>2012-05-31T12:33:31Z</time>
      </trkpt>
      <trkpt lat="45.73959" lon="4.70757">
        <ele>290.94</ele>
        <time>2012-05-31T12:33:47Z</time>
      </trkpt>
      <trkpt lat="45.73997" lon="4.70753">
        <ele>292.38</ele>
        <time>2012-05-31T12:34:02Z</time>
      </trkpt>
      <trkpt lat="45.74032" lon="4.70743">
        <ele>292.86</ele>
        <time>2012-05-31T12:34:17Z</time>
      </trkpt>
      <trkpt lat="45.74063" lon="4.70732">
        <ele>294.78</ele>
        <time>2012-05-31T12:34:31Z</time>
      </trkpt>
      <trkpt lat="45.7409" lon="4.70723">
        <ele>298.15</ele>
        <time>2012-05-31T12:34:42Z</time>
      </trkpt>
      <trkpt lat="45.74148" lon="4.70703">
        <ele>301.03</ele>
        <time>2012-05-31T12:35:00Z</time>
      </trkpt>
      <trkpt lat="45.74189" lon="4.70688">
        <ele>301.51</ele>
        <time>2012-05-31T12:35:14Z</time>
      </trkpt>
      <trkpt lat="45.74222" lon="4.70678">
        <ele>303.43</ele>
        <time>2012-05-31T12:35:26Z</time>
      </trkpt>
      <trkpt lat="45.74251" lon="4.70672">
        <ele>304.88</ele>
        <time>2012-05-31T12:35:39Z</time>
      </trkpt>
      <trkpt lat="45.74254" lon="4.70672">
        <ele>303.43</ele>
        <time>2012-05-31T12:35:50Z</time>
      </trkpt>
      <trkpt lat="45.74256" lon="4.70672">
        <ele>303.43</ele>
        <time>2012-05-31T12:36:18Z</time>
      </trkpt>
      <trkpt lat="45.74255" lon="4.70673">
        <ele>302.95</ele>
        <time>2012-05-31T12:36:44Z</time>
      </trkpt>
      <trkpt lat="45.74255" lon="4.70673">
        <ele>301.51</ele>
        <time>2012-05-31T12:37:08Z</time>
      </trkpt>
      <trkpt lat="45.74255" lon="4.7067">
        <ele>298.63</ele>
        <time>2012-05-31T12:37:45Z</time>
      </trkpt>
      <trkpt lat="45.74255" lon="4.70671">
        <ele>298.15</ele>
        <time>2012-05-31T12:38:29Z</time>
      </trkpt>
      <trkpt lat="45.74256" lon="4.70671">
        <ele>298.15</ele>
        <time>2012-05-31T12:39:03Z</time>
      </trkpt>
      <trkpt lat="45.74258" lon="4.70673">
        <ele>297.67</ele>
        <time>2012-05-31T12:39:21Z</time>
      </trkpt>
      <trkpt lat="45.74261" lon="4.70675">
        <ele>298.15</ele>
        <time>2012-05-31T12:39:46Z</time>
      </trkpt>
      <trkpt lat="45.74263" lon="4.70676">
        <ele>298.63</ele>
        <time>2012-05-31T12:40:10Z</time>
      </trkpt>
      <trkpt lat="45.74263" lon="4.70675">
        <ele>299.11</ele>
        <time>2012-05-31T12:40:33Z</time>
      </trkpt>
      <trkpt lat="45.74262" lon="4.70675">
        <ele>299.11</ele>
        <time>2012-05-31T12:41:02Z</time>
      </trkpt>
      <trkpt lat="45.74258" lon="4.70675">
        <ele>299.11</ele>
        <time>2012-05-31T12:41:20Z</time>
      </trkpt>
      <trkpt lat="45.74254" lon="4.70674">
        <ele>299.11</ele>
        <time>2012-05-31T12:41:34Z</time>
      </trkpt>
      <trkpt lat="45.7426" lon="4.70673">
        <ele>299.11</ele>
        <time>2012-05-31T12:41:46Z</time>
      </trkpt>
      <trkpt lat="45.74263" lon="4.70675">
        <ele>299.59</ele>
        <time>2012-05-31T12:42:06Z</time>
      </trkpt>
      <trkpt lat="45.74263" lon="4.70678">
        <ele>300.07</ele>
        <time>2012-05-31T12:42:21Z</time>
      </trkpt>
      <trkpt lat="45.74256" lon="4.70725">
        <ele>299.59</ele>
        <time>2012-05-31T12:42:35Z</time>
      </trkpt>
      <trkpt lat="45.74252" lon="4.70802">
        <ele>301.99</ele>
        <time>2012-05-31T12:42:52Z</time>
      </trkpt>
      <trkpt lat="45.74251" lon="4.70884">
        <ele>302.95</ele>
        <time>2012-05-31T12:43:10Z</time>
      </trkpt>
      <trkpt lat="45.74252" lon="4.70958">
        <ele>301.99</ele>
        <time>2012-05-31T12:43:25Z</time>
      </trkpt>
      <trkpt lat="45.74248" lon="4.71055">
        <ele>299.11</ele>
        <time>2012-05-31T12:43:41Z</time>
      </trkpt>
      <trkpt lat="45.74248" lon="4.71116">
        <ele>297.67</ele>
        <time>2012-05-31T12:43:51Z</time>
      </trkpt>
      <trkpt lat="45.74248" lon="4.7114">
        <ele>297.18</ele>
        <time>2012-05-31T12:43:55Z</time>
      </trkpt>
      <trkpt lat="45.74248" lon="4.71159">
        <ele>296.7</ele>
        <time>2012-05-31T12:43:58Z</time>
      </trkpt>
      <trkpt lat="45.74249" lon="4.71219">
        <ele>295.26</ele>
        <time>2012-05-31T12:44:07Z</time>
      </trkpt>
      <trkpt lat="45.74251" lon="4.71259">
        <ele>294.3</ele>
        <time>2012-05-31T12:44:13Z</time>
      </trkpt>
      <trkpt lat="45.74263" lon="4.71363">
        <ele>290.46</ele>
        <time>2012-05-31T12:44:28Z</time>
      </trkpt>
      <trkpt lat="45.74267" lon="4.71385">
        <ele>289.97</ele>
        <time>2012-05-31T12:44:31Z</time>
      </trkpt>
      <trkpt lat="45.74273" lon="4.71414">
        <ele>289.01</ele>
        <time>2012-05-31T12:44:35Z</time>
      </trkpt>
      <trkpt lat="45.74287" lon="4.71448">
        <ele>288.05</ele>
        <time>2012-05-31T12:44:40Z</time>
      </trkpt>
      <trkpt lat="45.74299" lon="4.71472">
        <ele>288.05</ele>
        <time>2012-05-31T12:44:44Z</time>
      </trkpt>
      <trkpt lat="45.7434" lon="4.71533">
        <ele>288.53</ele>
        <time>2012-05-31T12:44:59Z</time>
      </trkpt>
      <trkpt lat="45.74346" lon="4.71539">
        <ele>288.05</ele>
        <time>2012-05-31T12:45:08Z</time>
      </trkpt>
      <trkpt lat="45.74356" lon="4.71526">
        <ele>288.05</ele>
        <time>2012-05-31T12:45:15Z</time>
      </trkpt>
      <trkpt lat="45.74391" lon="4.71474">
        <ele>289.49</ele>
        <time>2012-05-31T12:45:31Z</time>
      </trkpt>
      <trkpt lat="45.74427" lon="4.71427">
        <ele>290.46</ele>
        <time>2012-05-31T12:45:46Z</time>
      </trkpt>
      <trkpt lat="45.7444" lon="4.71413">
        <ele>291.42</ele>
        <time>2012-05-31T12:45:51Z</time>
      </trkpt>
      <trkpt lat="45.74443" lon="4.71391">
        <ele>291.42</ele>
        <time>2012-05-31T12:45:57Z</time>
      </trkpt>
      <trkpt lat="45.74451" lon="4.71378">
        <ele>291.9</ele>
        <time>2012-05-31T12:46:09Z</time>
      </trkpt>
      <trkpt lat="45.7445" lon="4.71379">
        <ele>291.42</ele>
        <time>2012-05-31T12:46:32Z</time>
      </trkpt>
      <trkpt lat="45.7445" lon="4.7138">
        <ele>290.94</ele>
        <time>2012-05-31T12:46:54Z</time>
      </trkpt>
      <trkpt lat="45.7445" lon="4.71378">
        <ele>290.46</ele>
        <time>2012-05-31T12:47:15Z</time>
      </trkpt>
      <trkpt lat="45.74449" lon="4.71377">
        <ele>291.42</ele>
        <time>2012-05-31T12:47:39Z</time>
      </trkpt>
      <trkpt lat="45.74449" lon="4.71377">
        <ele>291.42</ele>
        <time>2012-05-31T12:47:54Z</time>
      </trkpt>
      <trkpt lat="45.74456" lon="4.71366">
        <ele>291.9</ele>
        <time>2012-05-31T12:48:09Z</time>
      </trkpt>
      <trkpt lat="45.74459" lon="4.71361">
        <ele>291.9</ele>
        <time>2012-05-31T12:48:20Z</time>
      </trkpt>
      <trkpt lat="45.74461" lon="4.71361">
        <ele>291.42</ele>
        <time>2012-05-31T12:48:51Z</time>
      </trkpt>
      <trkpt lat="45.74461" lon="4.71362">
        <ele>292.38</ele>
        <time>2012-05-31T12:49:19Z</time>
      </trkpt>
      <trkpt lat="45.74462" lon="4.71362">
        <ele>294.3</ele>
        <time>2012-05-31T12:49:47Z</time>
      </trkpt>
      <trkpt lat="45.74462" lon="4.71362">
        <ele>296.22</ele>
        <time>2012-05-31T12:50:18Z</time>
      </trkpt>
      <trkpt lat="45.74462" lon="4.71363">
        <ele>297.67</ele>
        <time>2012-05-31T12:50:50Z</time>
      </trkpt>
    </trkseg>
  </trk>
</gpx>